Hlavní strana
METAR-TAF:

METAR-TAF

Letiště :

Edremit, Turecko

zeměpisná šířka: 39-33-16N, zeměpisná délka: 27-00-49E, výška: 15 m

Aktuální stav počasí

Zpráva byla vytvořena před 1 hodinou a 7 minutami, v 04:50 UTC
Východní vítr 14 kt
Teplota 5°C
Vlhkost vzduchu 56%
Tlak 1039 hPa
Viditelnost 10 km a více
Oblačno až skoro zataženo ve výšce 3000 ft

METAR: LTFD 210450Z 08014KT 9999 BKN030 05/M03 Q1039

Čas: 08:57 (05:57 UTC)

Předpověď počasí

Zpráva byla vytvořena před 1 hodinou a 17 minutami, v 04:40 UTC
Předpověď platná od 21 v 06 UTC do 21 v 15 UTC
Východní vítr 15 kt
Viditelnost 10 km a více
Oblačno až skoro zataženo ve výšce 3000 ft

TAF: LTFD 210440Z 2106/2115 08015KT 9999 BKN030

Stav a předpovědi počasí z více než 4 000 letišť (zprávy METAR a TAF).

Červené a žluté tečky na mapě představují dostupné meteorologické stanice.

Když kurzor umístíte na tečku, zobrazí se název stanice.

Pak kliknutím zobrazíte stav a předpověď počasí.

Chcete-li změnit mapu, kliknutím na zelené tlačítko se znaménkem +mapu přiblížíte, kliknutím na zelené tlačítko se znaménkem – mapu oddálíte a kliknutím na zelené šipky přejdete na sousední mapy.


METAR-TAF: